Easy to use

vPilot, FSInn, and Squawkbox

VATSIM has 3 different client software available to choose by the user. The 3 different softwares are relatively easy to use and enjoyable to the user's experience. The software's operating manual is available to download in case user has not been able to fully operate the software to get a real working pilot experience.

Radar that functions similarly to real ATC's radar

EuroScope & VRC

VATSIM uses an advanced radar client simulating real ATC experience in the real world. Although it said to be advanced, both radar clients are very easy to use. Another interesting point is VATSIM has the technology to break the limit between simulation and real life experience.

With VATSIM, you can learn more about aviation.
You can also discuss with other aviation geek.

Unforgettable Experience

Current Activity

No controllers currently online!

Pilot

Callsign Name Route
BOE138Muhammad Haykal WIII (1436616)PHNL-WIII
BOE175Gery Kurniawan Sahabu WIII (1148958)WADD-WAAA
EVA369Alief Prio WAHS (1421582)WSSS-WIII
TMC044Daniel Dezulier (1400805)WAMM-WA98
TMC4526Eric Lavorel (1342825)WAMM-WA44
VHR3424Marc-Andre Lalande CYUL (1179262)WAAA-WAMP

*This information may not be up to date.

METAR

Airport Name - Location (ICAO) METAR
Sultan Hasanuddin - Makassar (WAAA)METAR WAAA 141430Z VRB02KT 8000 SCT018 27/26 Q1011|NOSIG=
Ngurah Rai - Denpasar (WADD)METAR WADD 141430Z 24004KT 9999 SCT017 29/25 Q1011|NOSIG=
Ahmad Yani - Semarang (WAHS)METAR WAHS 141430Z 08002KT 6000 FEW013CB SCT014 25/24 Q1011|RMK CB TO NW=
Juanda - Surabaya (WARR)METAR WARR 141430Z 27007KT 7000 FEW020CB 27/25 Q1011|NOSIG=
Soekarno Hatta - Jakarta (WIII)METAR WIII 141430Z 25014KT 8000 BKN020 27/23 Q1012|NOSIG=
Halim Perdanakusuma - Jakarta (WIHH)METAR WIHH 141200Z 25012KT 6000 SCT019 27/23 Q1010|RMK RA TO S=
Kualanamu International Airport - Deli Serdang (WIMM)METAR WIMM 141430Z 05005KT 9999 BKN017 26/24 Q1012|NOSIG=

*METAR resource from BMKG. This information may not be up to date.

VATSIM Indonesia vACC VATSIM South East Asia VATSIM Asia